createdAt,value
2022-09-11T00:01:37.465Z,89.22
2022-09-11T00:04:06.338Z,91.00
2022-09-11T00:06:34.545Z,87.83
2022-09-11T00:09:07.491Z,87.11
2022-09-11T00:11:41.453Z,87.29
2022-09-11T00:14:11.152Z,86.69
2022-09-11T00:16:42.435Z,89.17
2022-09-11T00:19:14.083Z,88.86
2022-09-11T00:21:42.149Z,87.78
2022-09-11T00:24:11.260Z,86.70
2022-09-11T00:26:42.413Z,90.76
2022-09-11T00:29:10.882Z,87.66
2022-09-11T00:31:39.145Z,87.51
2022-09-11T00:34:07.851Z,87.11
2022-09-11T00:36:37.582Z,86.87
2022-09-11T00:39:05.692Z,85.56
2022-09-11T00:41:39.336Z,89.01
2022-09-11T00:44:29.865Z,89.63
2022-09-11T00:47:01.100Z,87.50
2022-09-11T00:49:36.015Z,86.60
2022-09-11T00:52:10.680Z,88.03
2022-09-11T00:54:46.268Z,88.41
2022-09-11T00:57:15.385Z,88.53
2022-09-11T00:59:48.118Z,87.13
2022-09-11T01:02:25.508Z,87.78
2022-09-11T01:04:56.801Z,89.39
2022-09-11T01:07:27.863Z,87.84
2022-09-11T01:09:56.157Z,90.48
2022-09-11T01:12:36.419Z,90.62
2022-09-11T01:15:10.577Z,90.72
2022-09-11T01:17:49.265Z,90.02
2022-09-11T01:20:37.074Z,88.80
2022-09-11T01:23:43.136Z,90.97
2022-09-11T01:26:43.426Z,90.90
2022-09-11T01:29:22.412Z,90.11
2022-09-11T01:32:00.308Z,91.81
2022-09-11T01:34:36.704Z,92.27
2022-09-11T01:37:09.677Z,90.10
2022-09-11T01:39:45.857Z,87.61
2022-09-11T01:42:21.480Z,89.39
2022-09-11T01:44:55.598Z,89.97
2022-09-11T01:47:24.108Z,90.68
2022-09-11T01:49:59.614Z,92.16
2022-09-11T01:52:36.973Z,90.63
2022-09-11T01:55:13.106Z,91.43
2022-09-11T01:57:50.398Z,91.02
2022-09-11T02:00:19.952Z,90.26
2022-09-11T02:02:59.389Z,92.06
2022-09-11T02:05:33.611Z,92.24
2022-09-11T02:08:08.144Z,91.86
2022-09-11T02:10:48.373Z,95.91
2022-09-11T02:13:27.844Z,93.53
2022-09-11T02:16:08.104Z,90.56
2022-09-11T02:18:46.575Z,92.15
2022-09-11T02:21:14.351Z,93.97
2022-09-11T02:23:42.397Z,93.42
2022-09-11T02:26:14.043Z,90.08
2022-09-11T02:28:41.984Z,90.69
2022-09-11T02:31:11.206Z,91.15
2022-09-11T02:33:39.258Z,92.03
2022-09-11T02:36:35.539Z,91.42
2022-09-11T02:39:24.915Z,92.68
2022-09-11T02:42:15.866Z,90.74
2022-09-11T02:44:55.132Z,88.86
2022-09-11T02:47:42.543Z,87.88
2022-09-11T02:50:26.387Z,89.05
2022-09-11T02:53:07.532Z,94.05
2022-09-11T02:55:53.602Z,93.51
2022-09-11T02:58:28.211Z,91.53
2022-09-11T03:00:59.714Z,92.92
2022-09-11T03:03:28.863Z,95.02
2022-09-11T03:05:57.234Z,91.54
2022-09-11T03:08:24.999Z,93.76
2022-09-11T03:10:52.793Z,93.41
2022-09-11T03:13:20.570Z,92.52
2022-09-11T03:15:48.571Z,94.25
2022-09-11T03:18:16.579Z,93.21
2022-09-11T03:20:47.812Z,96.64
2022-09-11T03:23:15.564Z,96.99
2022-09-11T03:25:43.373Z,97.95
2022-09-11T03:28:11.487Z,98.88
2022-09-11T03:30:41.457Z,95.88
2022-09-11T03:33:09.780Z,98.97
2022-09-11T03:35:38.491Z,100.00
2022-09-11T03:38:07.548Z,100.00
2022-09-11T03:40:35.382Z,100.00
2022-09-11T03:43:03.159Z,100.00
2022-09-11T03:45:31.062Z,100.00
2022-09-11T03:47:58.971Z,100.00
2022-09-11T03:50:27.715Z,99.74
2022-09-11T03:52:55.493Z,100.00
2022-09-11T03:55:24.726Z,100.00
2022-09-11T03:57:52.479Z,100.00
2022-09-11T04:00:20.420Z,100.00
2022-09-11T04:02:48.199Z,100.00
2022-09-11T04:05:16.272Z,96.68
2022-09-11T04:07:44.051Z,99.91
2022-09-11T04:10:12.406Z,100.00
2022-09-11T04:12:41.947Z,100.00
2022-09-11T04:15:10.819Z,100.00
2022-09-11T04:17:38.620Z,99.20
2022-09-11T04:20:07.469Z,98.70
2022-09-11T04:22:35.598Z,97.78
2022-09-11T04:25:03.363Z,97.34
2022-09-11T04:27:31.570Z,97.59
2022-09-11T04:30:00.679Z,95.26
2022-09-11T04:32:29.373Z,92.82
2022-09-11T04:34:57.182Z,90.82
2022-09-11T04:37:25.100Z,91.78
2022-09-11T04:39:53.284Z,91.36
2022-09-11T04:42:21.198Z,89.85
2022-09-11T04:44:49.024Z,89.06
2022-09-11T04:47:18.699Z,86.13
2022-09-11T04:49:47.058Z,86.41
2022-09-11T04:52:15.358Z,86.36
2022-09-11T04:54:43.333Z,85.88
2022-09-11T04:57:11.110Z,86.16
2022-09-11T04:59:38.931Z,85.38
2022-09-11T05:02:06.776Z,86.08
2022-09-11T05:04:35.992Z,85.64
2022-09-11T05:07:03.815Z,86.14
2022-09-11T05:09:31.588Z,85.46
2022-09-11T05:11:59.342Z,86.55
2022-09-11T05:14:28.155Z,85.60
2022-09-11T05:16:55.908Z,88.53
2022-09-11T05:19:24.536Z,87.55
2022-09-11T05:21:53.750Z,87.16
2022-09-11T05:24:21.486Z,87.76
2022-09-11T05:26:49.278Z,88.68
2022-09-11T05:29:18.536Z,87.14
2022-09-11T05:31:47.709Z,90.36
2022-09-11T05:34:15.591Z,89.55
2022-09-11T05:36:43.432Z,93.27
2022-09-11T05:39:12.628Z,91.69
2022-09-11T05:41:40.749Z,89.07
2022-09-11T05:44:08.539Z,89.19
2022-09-11T05:46:36.316Z,85.92
2022-09-11T05:49:04.397Z,85.94
2022-09-11T05:51:35.689Z,86.71
2022-09-11T05:54:04.223Z,90.49
2022-09-11T05:56:33.309Z,90.41
2022-09-11T05:59:02.596Z,89.39
2022-09-11T06:01:31.111Z,87.27
2022-09-11T06:03:59.089Z,87.30
2022-09-11T06:06:26.995Z,87.08
2022-09-11T06:08:56.069Z,86.44
2022-09-11T06:11:23.918Z,88.08
2022-09-11T06:13:53.117Z,90.20
2022-09-11T06:16:23.588Z,90.49
2022-09-11T06:18:53.086Z,90.64
2022-09-11T06:21:24.586Z,86.95
2022-09-11T06:23:54.155Z,85.36
2022-09-11T06:26:24.862Z,87.09
2022-09-11T06:28:55.458Z,88.03
2022-09-11T06:31:26.589Z,85.83
2022-09-11T06:33:54.960Z,88.38
2022-09-11T06:36:27.007Z,88.41
2022-09-11T06:38:56.834Z,87.82
2022-09-11T06:41:26.429Z,86.85
2022-09-11T06:43:55.833Z,86.58
2022-09-11T06:46:26.021Z,90.23
2022-09-11T06:48:54.649Z,89.53
2022-09-11T06:51:24.434Z,89.14
2022-09-11T06:53:56.250Z,92.49
2022-09-11T06:56:24.045Z,89.52
2022-09-11T06:58:51.900Z,87.70
2022-09-11T07:01:23.503Z,93.73
2022-09-11T07:03:53.847Z,95.26
2022-09-11T07:06:24.648Z,96.12
2022-09-11T07:08:54.609Z,93.89
2022-09-11T07:11:22.666Z,93.73
2022-09-11T07:13:50.486Z,90.49
2022-09-11T07:16:20.617Z,92.38
2022-09-11T07:18:49.137Z,90.17
2022-09-11T07:21:20.967Z,91.10
2022-09-11T07:23:54.472Z,90.77
2022-09-11T07:26:24.727Z,91.53
2022-09-11T07:28:52.994Z,94.35
2022-09-11T07:31:26.787Z,92.70
2022-09-11T07:33:54.993Z,88.45
2022-09-11T07:36:25.219Z,88.41
2022-09-11T07:38:54.045Z,89.63
2022-09-11T07:41:24.346Z,89.75
2022-09-11T07:43:55.859Z,88.82
2022-09-11T07:46:26.819Z,89.28
2022-09-11T07:48:56.400Z,89.47
2022-09-11T07:51:25.677Z,88.94
2022-09-11T07:53:57.845Z,89.72
2022-09-11T07:56:28.057Z,85.54
2022-09-11T07:58:56.823Z,89.64
2022-09-11T08:01:29.517Z,89.55
2022-09-11T08:03:59.586Z,90.09
2022-09-11T08:06:31.951Z,89.34
2022-09-11T08:09:01.912Z,88.61
2022-09-11T08:11:32.641Z,90.08
2022-09-11T08:14:01.227Z,91.83
2022-09-11T08:16:30.779Z,90.46
2022-09-11T08:18:59.318Z,88.34
2022-09-11T08:21:27.614Z,86.55
2022-09-11T08:23:55.605Z,87.48
2022-09-11T08:26:26.447Z,87.52
2022-09-11T08:28:56.780Z,87.88
2022-09-11T08:31:28.798Z,88.78
2022-09-11T08:33:58.376Z,87.00
2022-09-11T08:36:26.883Z,85.85
2022-09-11T08:38:55.378Z,88.87
2022-09-11T08:41:41.033Z,87.86
2022-09-11T08:44:18.898Z,87.42
2022-09-11T08:46:54.265Z,85.09
2022-09-11T08:49:27.988Z,85.03
2022-09-11T08:52:02.620Z,84.32
2022-09-11T08:54:34.990Z,86.03
2022-09-11T08:57:18.209Z,85.55
2022-09-11T09:00:10.381Z,85.43
2022-09-11T09:03:02.554Z,87.03
2022-09-11T09:05:43.275Z,85.18
2022-09-11T09:08:40.406Z,84.98
2022-09-11T09:11:25.300Z,84.23
2022-09-11T09:14:23.043Z,82.68
2022-09-11T09:17:00.781Z,85.40
2022-09-11T09:19:35.630Z,85.25
2022-09-11T09:22:15.198Z,84.78
2022-09-11T09:24:48.479Z,83.68
2022-09-11T09:27:20.500Z,82.81
2022-09-11T09:29:54.692Z,83.88
2022-09-11T09:32:30.962Z,83.87
2022-09-11T09:35:06.032Z,81.35
2022-09-11T09:37:37.242Z,79.46
2022-09-11T09:40:10.834Z,78.18
2022-09-11T09:43:11.055Z,79.79
2022-09-11T09:45:57.241Z,77.60
2022-09-11T09:48:25.987Z,78.79
2022-09-11T09:50:53.767Z,80.28
2022-09-11T09:53:32.951Z,83.69
2022-09-11T09:56:01.661Z,85.08
2022-09-11T09:58:41.728Z,85.07
2022-09-11T10:01:45.059Z,86.46
2022-09-11T10:04:18.485Z,84.91
2022-09-11T10:06:49.675Z,83.81
2022-09-11T10:09:26.547Z,84.44
2022-09-11T10:12:03.334Z,82.37
2022-09-11T10:14:51.264Z,82.51
2022-09-11T10:17:31.259Z,83.87
2022-09-11T10:20:22.896Z,83.83
2022-09-11T10:22:51.901Z,80.70
2022-09-11T10:25:26.384Z,79.35
2022-09-11T10:28:04.165Z,80.37
2022-09-11T10:30:39.121Z,79.92
2022-09-11T10:33:19.040Z,80.95
2022-09-11T10:35:55.122Z,77.90
2022-09-11T10:38:31.940Z,78.77
2022-09-11T10:41:09.613Z,75.99
2022-09-11T10:43:48.332Z,77.82
2022-09-11T10:46:30.267Z,77.15
2022-09-11T10:49:09.129Z,76.06
2022-09-11T10:51:43.072Z,78.50
2022-09-11T10:54:38.310Z,78.50
2022-09-11T10:57:18.865Z,80.49
2022-09-11T11:00:02.797Z,80.09
2022-09-11T11:02:34.561Z,80.79
2022-09-11T11:05:08.117Z,80.39
2022-09-11T11:08:01.897Z,83.61
2022-09-11T11:10:48.449Z,83.06
2022-09-11T11:13:38.427Z,83.88
2022-09-11T11:16:20.180Z,85.62
2022-09-11T11:19:09.035Z,82.90
2022-09-11T11:21:55.748Z,81.25
2022-09-11T11:24:47.606Z,81.54
2022-09-11T11:27:55.866Z,80.69
2022-09-11T11:30:32.204Z,78.84
2022-09-11T11:33:25.253Z,80.41
2022-09-11T11:36:05.261Z,80.01
2022-09-11T11:38:42.253Z,77.25
2022-09-11T11:41:19.767Z,78.19
2022-09-11T11:43:52.047Z,75.04
2022-09-11T11:46:30.911Z,73.90
2022-09-11T11:49:02.880Z,76.78
2022-09-11T11:51:41.903Z,77.13
2022-09-11T11:54:18.323Z,76.75
2022-09-11T11:56:51.691Z,77.35
2022-09-11T11:59:31.197Z,74.48
2022-09-11T12:02:12.054Z,76.45
2022-09-11T12:04:48.783Z,75.28
2022-09-11T12:07:28.242Z,74.56
2022-09-11T12:09:59.070Z,74.46
2022-09-11T12:12:31.171Z,75.08
2022-09-11T12:15:07.399Z,75.80
2022-09-11T12:17:39.862Z,78.54
2022-09-11T12:20:39.124Z,77.38
2022-09-11T12:23:35.318Z,77.50
2022-09-11T12:26:22.119Z,77.50
2022-09-11T12:28:51.571Z,75.26
2022-09-11T12:31:19.754Z,75.56
2022-09-11T12:33:56.297Z,76.38
2022-09-11T12:36:53.823Z,74.76
2022-09-11T12:39:32.463Z,74.01
2022-09-11T12:42:48.629Z,73.01
2022-09-11T12:45:38.399Z,73.65
2022-09-11T12:48:11.319Z,73.85
2022-09-11T12:50:49.333Z,72.13
2022-09-11T12:53:24.828Z,72.48
2022-09-11T12:55:59.712Z,73.30
2022-09-11T12:58:34.888Z,75.40
2022-09-11T13:01:08.530Z,73.83
2022-09-11T13:03:38.602Z,75.31
2022-09-11T13:06:13.661Z,76.95
2022-09-11T13:08:50.694Z,77.51
2022-09-11T13:11:41.141Z,76.50
2022-09-11T13:14:47.120Z,77.17
2022-09-11T13:17:25.715Z,76.93
2022-09-11T13:19:57.604Z,75.08
2022-09-11T13:22:31.211Z,76.26
2022-09-11T13:25:14.296Z,75.14
2022-09-11T13:27:46.342Z,77.82
2022-09-11T13:30:17.682Z,76.85
2022-09-11T13:32:48.984Z,78.82
2022-09-11T13:35:22.840Z,78.92
2022-09-11T13:37:59.432Z,77.74
2022-09-11T13:40:35.632Z,77.23
2022-09-11T13:43:05.005Z,76.94
2022-09-11T13:45:32.950Z,74.34
2022-09-11T13:48:00.838Z,75.48
2022-09-11T13:50:28.689Z,73.78
2022-09-11T13:52:58.441Z,73.92
2022-09-11T13:55:27.762Z,73.46
2022-09-11T13:57:59.223Z,72.84
2022-09-11T14:00:45.798Z,73.13
2022-09-11T14:03:24.832Z,72.12
2022-09-11T14:05:55.972Z,71.76
2022-09-11T14:08:34.269Z,72.62
2022-09-11T14:11:11.246Z,72.87
2022-09-11T14:13:47.569Z,71.46
2022-09-11T14:16:25.304Z,71.61
2022-09-11T14:18:59.456Z,70.49
2022-09-11T14:21:34.300Z,71.81
2022-09-11T14:24:07.465Z,72.82
2022-09-11T14:26:42.420Z,72.20
2022-09-11T14:29:25.175Z,71.90
2022-09-11T14:31:54.246Z,72.37
2022-09-11T14:34:27.513Z,72.54
2022-09-11T14:37:03.584Z,73.04
2022-09-11T14:39:39.991Z,72.45
2022-09-11T14:42:09.747Z,73.12
2022-09-11T14:44:40.322Z,72.25
2022-09-11T14:47:15.502Z,72.27
2022-09-11T14:49:43.236Z,74.29
2022-09-11T14:52:15.194Z,74.76
2022-09-11T14:54:44.708Z,73.49
2022-09-11T14:57:19.788Z,74.24
2022-09-11T14:59:48.486Z,75.71
2022-09-11T15:02:20.879Z,74.74
2022-09-11T15:04:49.318Z,75.70
2022-09-11T15:07:19.745Z,77.27
2022-09-11T15:09:48.849Z,78.98
2022-09-11T15:12:17.591Z,79.99
2022-09-11T15:14:56.544Z,81.13
2022-09-11T15:17:31.362Z,81.77
2022-09-11T15:20:00.571Z,81.30
2022-09-11T15:22:29.097Z,80.04
2022-09-11T15:25:00.316Z,79.17
2022-09-11T15:27:28.388Z,81.14
2022-09-11T15:29:56.444Z,81.76
2022-09-11T15:32:24.320Z,81.20
2022-09-11T15:34:53.965Z,80.05
2022-09-11T15:37:21.901Z,79.10
2022-09-11T15:39:50.687Z,80.86
2022-09-11T15:42:20.346Z,78.55
2022-09-11T15:44:48.119Z,79.47
2022-09-11T15:47:16.550Z,80.37
2022-09-11T15:49:47.600Z,78.95
2022-09-11T15:52:15.994Z,77.83
2022-09-11T15:54:45.646Z,78.76
2022-09-11T15:57:13.418Z,77.19
2022-09-11T15:59:43.046Z,79.24
2022-09-11T16:02:12.517Z,77.68
2022-09-11T16:04:40.446Z,77.26
2022-09-11T16:07:08.294Z,76.96
2022-09-11T16:09:36.225Z,77.42
2022-09-11T16:12:04.944Z,76.69
2022-09-11T16:14:37.773Z,78.27
2022-09-11T16:17:09.170Z,78.91
2022-09-11T16:19:38.609Z,79.98
2022-09-11T16:22:08.828Z,77.84
2022-09-11T16:24:38.066Z,77.81
2022-09-11T16:27:10.223Z,78.46
2022-09-11T16:30:15.443Z,78.00
2022-09-11T16:32:34.066Z,79.36
2022-09-11T16:35:01.847Z,78.72
2022-09-11T16:37:34.005Z,77.69
2022-09-11T16:40:04.059Z,78.07
2022-09-11T16:42:32.367Z,76.83
2022-09-11T16:45:00.157Z,77.25
2022-09-11T16:47:30.348Z,76.93
2022-09-11T16:50:13.328Z,76.77
2022-09-11T16:52:41.127Z,76.03
2022-09-11T16:55:10.525Z,76.51
2022-09-11T16:57:38.634Z,76.53
2022-09-11T17:00:08.921Z,75.72
2022-09-11T17:02:38.533Z,75.88
2022-09-11T17:05:06.911Z,77.43
2022-09-11T17:07:35.432Z,76.59
2022-09-11T17:10:03.456Z,78.12
2022-09-11T17:12:31.270Z,79.22
2022-09-11T17:14:59.059Z,77.14
2022-09-11T17:17:26.940Z,80.35
2022-09-11T17:19:58.357Z,79.46
2022-09-11T17:22:26.906Z,78.83
2022-09-11T17:24:54.715Z,79.25
2022-09-11T17:27:23.202Z,76.77
2022-09-11T17:29:51.124Z,78.43
2022-09-11T17:32:29.182Z,78.48
2022-09-11T17:34:59.344Z,79.05
2022-09-11T17:37:28.291Z,80.23
2022-09-11T17:39:57.888Z,79.28
2022-09-11T17:42:28.650Z,79.50
2022-09-11T17:44:56.499Z,79.29
2022-09-11T17:47:24.349Z,80.23
2022-09-11T17:49:52.298Z,81.83
2022-09-11T17:52:21.430Z,80.15
2022-09-11T17:54:49.279Z,79.41
2022-09-11T17:57:17.112Z,79.64
2022-09-11T17:59:44.971Z,79.17
2022-09-11T18:02:15.307Z,79.99
2022-09-11T18:04:44.218Z,80.43
2022-09-11T18:07:12.221Z,81.09
2022-09-11T18:09:41.416Z,80.10
2022-09-11T18:12:10.029Z,80.51
2022-09-11T18:14:39.044Z,78.96
2022-09-11T18:17:07.111Z,77.87
2022-09-11T18:19:34.937Z,77.90
2022-09-11T18:22:02.761Z,78.57
2022-09-11T18:24:31.230Z,78.16
2022-09-11T18:27:01.216Z,79.29
2022-09-11T18:29:30.640Z,81.20
2022-09-11T18:31:59.874Z,79.99
2022-09-11T18:34:29.187Z,78.93
2022-09-11T18:36:57.012Z,81.40
2022-09-11T18:39:25.240Z,80.61
2022-09-11T18:41:53.449Z,80.60
2022-09-11T18:44:25.180Z,80.26
2022-09-11T18:46:54.923Z,79.21
2022-09-11T18:49:23.549Z,80.87
2022-09-11T18:51:53.688Z,79.30
2022-09-11T18:54:22.548Z,79.94
2022-09-11T18:56:51.530Z,80.06
2022-09-11T18:59:20.462Z,79.82
2022-09-11T19:01:49.769Z,81.02
2022-09-11T19:04:18.978Z,80.88
2022-09-11T19:06:46.902Z,81.13
2022-09-11T19:09:15.493Z,80.64
2022-09-11T19:11:43.564Z,81.32
2022-09-11T19:14:14.220Z,81.85
2022-09-11T19:16:42.781Z,81.67
2022-09-11T19:19:11.896Z,81.66
2022-09-11T19:21:39.817Z,81.45
2022-09-11T19:24:08.509Z,80.91
2022-09-11T19:26:39.878Z,81.10
2022-09-11T19:29:09.027Z,81.47
2022-09-11T19:31:39.350Z,80.79
2022-09-11T19:34:09.577Z,80.67
2022-09-11T19:36:38.872Z,82.31
2022-09-11T19:39:07.430Z,82.41
2022-09-11T19:41:38.623Z,82.04
2022-09-11T19:44:09.097Z,82.16
2022-09-11T19:46:38.345Z,81.83
2022-09-11T19:49:07.723Z,82.37
2022-09-11T19:51:40.889Z,81.81
2022-09-11T19:54:11.165Z,81.72
2022-09-11T19:56:40.072Z,82.01
2022-09-11T19:59:09.571Z,81.98
2022-09-11T20:01:37.580Z,82.02
2022-09-11T20:04:06.277Z,82.09
2022-09-11T20:06:36.263Z,82.83
2022-09-11T20:09:29.829Z,83.37
2022-09-11T20:11:55.196Z,82.89
2022-09-11T20:14:23.290Z,83.83
2022-09-11T20:16:51.062Z,84.05
2022-09-11T20:19:20.523Z,82.80
2022-09-11T20:21:48.321Z,82.35
2022-09-11T20:24:17.431Z,82.50
2022-09-11T20:26:45.305Z,83.96
2022-09-11T20:29:15.763Z,83.28
2022-09-11T20:31:48.883Z,83.17
2022-09-11T20:34:19.628Z,84.72
2022-09-11T20:36:48.092Z,83.99
2022-09-11T20:39:17.472Z,83.86
2022-09-11T20:41:46.676Z,83.50
2022-09-11T20:44:14.540Z,84.23
2022-09-11T20:46:43.632Z,84.28
2022-09-11T20:49:12.356Z,83.87
2022-09-11T20:51:42.475Z,83.19
2022-09-11T20:54:10.781Z,81.31
2022-09-11T20:56:40.560Z,81.97
2022-09-11T20:59:08.686Z,80.57
2022-09-11T21:01:39.982Z,80.37
2022-09-11T21:04:11.363Z,78.48
2022-09-11T21:06:41.581Z,79.89
2022-09-11T21:09:12.361Z,80.17
2022-09-11T21:11:43.350Z,81.58
2022-09-11T21:14:12.322Z,81.82
2022-09-11T21:16:40.369Z,82.32
2022-09-11T21:19:09.544Z,80.20
2022-09-11T21:21:39.995Z,78.98
2022-09-11T21:24:12.237Z,79.20
2022-09-11T21:26:42.762Z,78.94
2022-09-11T21:29:13.951Z,79.85
2022-09-11T21:31:41.920Z,79.01
2022-09-11T21:34:11.329Z,80.08
2022-09-11T21:36:39.379Z,80.47
2022-09-11T21:39:07.415Z,81.29
2022-09-11T21:41:35.531Z,80.53
2022-09-11T21:44:05.196Z,81.86
2022-09-11T21:46:33.198Z,80.45
2022-09-11T21:49:01.770Z,81.18
2022-09-11T21:51:31.014Z,82.97
2022-09-11T21:54:01.666Z,81.97
2022-09-11T21:56:33.476Z,82.93
2022-09-11T21:59:02.010Z,81.26
2022-09-11T22:01:32.819Z,80.76
2022-09-11T22:04:01.713Z,80.75
2022-09-11T22:06:31.017Z,79.83
2022-09-11T22:09:01.537Z,79.64
2022-09-11T22:11:32.672Z,78.69
2022-09-11T22:14:00.511Z,78.58
2022-09-11T22:16:29.013Z,79.20
2022-09-11T22:18:58.156Z,79.16
2022-09-11T22:21:26.004Z,79.71
2022-09-11T22:23:55.025Z,78.97
2022-09-11T22:26:24.404Z,78.59
2022-09-11T22:28:52.943Z,80.67
2022-09-11T22:31:24.850Z,79.81
2022-09-11T22:33:55.007Z,78.59
2022-09-11T22:36:27.472Z,78.53
2022-09-11T22:38:56.358Z,78.46
2022-09-11T22:41:24.749Z,77.56
2022-09-11T22:43:52.589Z,77.49
2022-09-11T22:46:21.618Z,77.83
2022-09-11T22:48:49.650Z,78.19
2022-09-11T22:51:17.755Z,78.08
2022-09-11T22:53:47.233Z,78.73
2022-09-11T22:56:15.650Z,78.00
2022-09-11T22:58:43.970Z,77.97
2022-09-11T23:01:19.670Z,79.22
2022-09-11T23:03:49.873Z,80.07
2022-09-11T23:06:35.673Z,80.39
2022-09-11T23:09:06.845Z,80.35
2022-09-11T23:11:34.784Z,79.87
2022-09-11T23:14:02.624Z,80.08
2022-09-11T23:16:31.433Z,78.74
2022-09-11T23:19:02.091Z,79.68
2022-09-11T23:21:32.925Z,80.79
2022-09-11T23:24:01.983Z,80.12
2022-09-11T23:26:34.246Z,80.80
2022-09-11T23:29:02.114Z,82.41
2022-09-11T23:31:35.005Z,81.23
2022-09-11T23:34:06.251Z,82.95
2022-09-11T23:36:37.369Z,82.86
2022-09-11T23:39:05.756Z,81.96
2022-09-11T23:41:34.956Z,80.57
2022-09-11T23:44:03.858Z,80.84
2022-09-11T23:46:31.969Z,81.15
2022-09-11T23:48:59.808Z,81.15
2022-09-11T23:51:27.749Z,80.99
2022-09-11T23:53:55.514Z,81.89
2022-09-11T23:56:23.380Z,82.44
2022-09-11T23:58:52.458Z,81.75
